createdAt,value
2023-05-18T00:00:53.274Z,1021.07
2023-05-18T00:01:53.557Z,1021.07
2023-05-18T00:02:53.970Z,1021.04
2023-05-18T00:03:54.404Z,1021.07
2023-05-18T00:04:54.548Z,1021.01
2023-05-18T00:05:54.644Z,1021.00
2023-05-18T00:06:54.968Z,1021.00
2023-05-18T00:07:55.264Z,1020.97
2023-05-18T00:08:55.603Z,1020.99
2023-05-18T00:09:55.917Z,1021.00
2023-05-18T00:10:56.150Z,1020.95
2023-05-18T00:11:56.498Z,1020.96
2023-05-18T00:12:56.838Z,1020.97
2023-05-18T00:13:57.118Z,1020.97
2023-05-18T00:14:57.371Z,1021.00
2023-05-18T00:15:57.849Z,1020.97
2023-05-18T00:16:57.987Z,1021.02
2023-05-18T00:17:58.242Z,1021.03
2023-05-18T00:18:58.657Z,1020.95
2023-05-18T00:19:58.796Z,1020.96
2023-05-18T00:20:59.270Z,1021.01
2023-05-18T00:21:59.470Z,1020.96
2023-05-18T00:22:59.768Z,1020.97
2023-05-18T00:24:00.095Z,1020.94
2023-05-18T00:25:00.371Z,1020.99
2023-05-18T00:26:00.693Z,1020.97
2023-05-18T00:27:01.101Z,1020.97
2023-05-18T00:28:01.310Z,1020.99
2023-05-18T00:29:01.569Z,1021.00
2023-05-18T00:30:01.789Z,1020.99
2023-05-18T00:31:02.063Z,1020.99
2023-05-18T00:32:02.443Z,1021.02
2023-05-18T00:33:02.650Z,1020.96
2023-05-18T00:34:02.796Z,1020.96
2023-05-18T00:35:03.176Z,1021.01
2023-05-18T00:36:03.386Z,1021.01
2023-05-18T00:37:03.745Z,1020.98
2023-05-18T00:38:04.027Z,1021.03
2023-05-18T00:39:04.372Z,1021.05
2023-05-18T00:40:04.734Z,1021.07
2023-05-18T00:41:04.933Z,1021.05
2023-05-18T00:42:05.202Z,1021.05
2023-05-18T00:43:05.497Z,1021.05
2023-05-18T00:44:05.806Z,1021.03
2023-05-18T00:45:06.114Z,1021.07
2023-05-18T00:46:06.474Z,1021.02
2023-05-18T00:47:06.799Z,1021.04
2023-05-18T00:48:07.317Z,1021.03
2023-05-18T00:49:07.357Z,1021.03
2023-05-18T00:50:07.626Z,1020.97
2023-05-18T00:51:07.934Z,1021.01
2023-05-18T00:52:08.281Z,1021.02
2023-05-18T00:53:08.576Z,1021.00
2023-05-18T00:54:08.890Z,1021.03
2023-05-18T00:55:09.197Z,1021.01
2023-05-18T00:56:09.521Z,1021.00
2023-05-18T00:57:09.830Z,1021.01
2023-05-18T00:58:10.127Z,1020.98
2023-05-18T00:59:10.525Z,1021.05
2023-05-18T01:00:10.717Z,1020.97
2023-05-18T01:01:11.009Z,1020.98
2023-05-18T01:02:11.257Z,1021.02
2023-05-18T01:03:11.692Z,1020.97
2023-05-18T01:04:11.784Z,1021.02
2023-05-18T01:05:12.090Z,1020.99
2023-05-18T01:06:12.635Z,1020.95
2023-05-18T01:07:12.740Z,1020.98
2023-05-18T01:08:12.902Z,1020.98
2023-05-18T01:09:26.620Z,1020.95
2023-05-18T01:14:10.073Z,1020.95
2023-05-18T01:15:10.361Z,1020.90
2023-05-18T01:16:10.652Z,1020.95
2023-05-18T01:17:11.041Z,1020.96
2023-05-18T01:18:11.202Z,1020.96
2023-05-18T01:19:11.467Z,1020.99
2023-05-18T01:20:11.827Z,1020.91
2023-05-18T01:21:12.076Z,1020.97
2023-05-18T01:22:12.389Z,1020.97
2023-05-18T01:23:12.677Z,1020.92
2023-05-18T01:24:12.995Z,1020.93
2023-05-18T01:25:13.305Z,1020.96
2023-05-18T01:26:13.552Z,1021.00
2023-05-18T01:27:13.871Z,1020.97
2023-05-18T01:28:14.128Z,1020.92
2023-05-18T01:29:14.465Z,1020.96
2023-05-18T01:30:14.777Z,1020.96
2023-05-18T01:31:15.088Z,1020.94
2023-05-18T01:32:15.352Z,1020.97
2023-05-18T01:33:15.671Z,1020.92
2023-05-18T01:34:15.970Z,1020.97
2023-05-18T01:35:16.257Z,1020.98
2023-05-18T01:36:16.515Z,1020.98
2023-05-18T01:37:16.810Z,1020.97
2023-05-18T01:38:17.106Z,1020.96
2023-05-18T01:39:17.390Z,1021.01
2023-05-18T01:40:17.678Z,1020.99
2023-05-18T01:41:17.884Z,1021.07
2023-05-18T01:42:18.175Z,1021.03
2023-05-18T01:43:18.463Z,1021.00
2023-05-18T01:44:18.748Z,1021.03
2023-05-18T01:45:19.086Z,1021.02
2023-05-18T01:46:19.366Z,1021.04
2023-05-18T01:47:19.644Z,1021.03
2023-05-18T01:48:19.952Z,1021.02
2023-05-18T01:49:20.213Z,1021.01
2023-05-18T01:50:20.538Z,1021.03
2023-05-18T01:51:20.832Z,1021.05
2023-05-18T01:52:21.127Z,1021.08
2023-05-18T01:53:21.513Z,1021.07
2023-05-18T01:54:21.734Z,1021.08
2023-05-18T01:55:22.048Z,1021.10
2023-05-18T01:56:22.343Z,1021.07
2023-05-18T01:57:22.659Z,1021.04
2023-05-18T01:58:22.992Z,1021.07
2023-05-18T01:59:23.265Z,1021.07
2023-05-18T02:00:23.581Z,1021.03
2023-05-18T02:01:23.879Z,1021.04
2023-05-18T02:02:24.208Z,1021.03
2023-05-18T02:03:24.574Z,1021.01
2023-05-18T02:04:24.735Z,1020.99
2023-05-18T02:05:25.105Z,1021.02
2023-05-18T02:06:25.346Z,1021.00
2023-05-18T02:07:25.672Z,1020.98
2023-05-18T02:08:26.036Z,1020.99
2023-05-18T02:09:26.348Z,1021.00
2023-05-18T02:10:26.628Z,1021.02
2023-05-18T02:11:26.884Z,1021.02
2023-05-18T02:12:27.195Z,1021.01
2023-05-18T02:13:27.523Z,1020.98
2023-05-18T02:14:27.821Z,1020.99
2023-05-18T02:15:28.217Z,1021.03
2023-05-18T02:16:28.475Z,1021.00
2023-05-18T02:17:28.751Z,1021.10
2023-05-18T02:18:28.992Z,1021.05
2023-05-18T02:19:29.309Z,1021.00
2023-05-18T02:20:30.364Z,1021.06
2023-05-18T02:21:29.917Z,1021.07
2023-05-18T02:22:30.212Z,1021.08
2023-05-18T02:23:30.482Z,1021.07
2023-05-18T02:24:30.808Z,1021.11
2023-05-18T02:25:31.227Z,1021.10
2023-05-18T02:26:31.392Z,1021.08
2023-05-18T02:27:31.693Z,1021.08
2023-05-18T02:28:31.966Z,1021.08
2023-05-18T02:29:32.286Z,1021.08
2023-05-18T02:30:32.593Z,1021.10
2023-05-18T02:31:32.892Z,1021.10
2023-05-18T02:32:33.203Z,1021.10
2023-05-18T02:33:33.487Z,1021.07
2023-05-18T02:34:33.821Z,1021.13
2023-05-18T02:35:34.075Z,1021.09
2023-05-18T02:36:34.375Z,1021.10
2023-05-18T02:37:34.683Z,1021.11
2023-05-18T02:38:34.996Z,1021.08
2023-05-18T02:39:35.268Z,1021.09
2023-05-18T02:40:35.553Z,1021.12
2023-05-18T02:41:35.859Z,1021.14
2023-05-18T02:42:36.199Z,1021.10
2023-05-18T02:43:36.493Z,1021.15
2023-05-18T02:44:36.795Z,1021.14
2023-05-18T02:45:37.115Z,1021.17
2023-05-18T02:46:37.398Z,1021.18
2023-05-18T02:47:37.761Z,1021.20
2023-05-18T02:48:38.016Z,1021.14
2023-05-18T02:49:38.316Z,1021.15
2023-05-18T02:50:38.571Z,1021.16
2023-05-18T02:51:38.861Z,1021.16
2023-05-18T02:52:39.187Z,1021.12
2023-05-18T02:53:39.459Z,1021.19
2023-05-18T02:54:39.811Z,1021.16
2023-05-18T02:55:40.055Z,1021.15
2023-05-18T02:56:40.418Z,1021.13
2023-05-18T02:57:40.842Z,1021.12
2023-05-18T02:58:40.901Z,1021.10
2023-05-18T02:59:41.298Z,1021.10
2023-05-18T03:00:41.476Z,1021.10
2023-05-18T03:01:41.875Z,1021.07
2023-05-18T03:02:42.111Z,1021.12
2023-05-18T03:03:42.690Z,1021.10
2023-05-18T03:04:42.805Z,1021.13
2023-05-18T03:05:42.948Z,1021.11
2023-05-18T03:06:43.272Z,1021.17
2023-05-18T03:07:43.540Z,1021.16
2023-05-18T03:08:44.086Z,1021.15
2023-05-18T03:09:44.269Z,1021.10
2023-05-18T03:10:44.417Z,1021.15
2023-05-18T03:11:44.703Z,1021.13
2023-05-18T03:12:45.091Z,1021.16
2023-05-18T03:13:45.275Z,1021.15
2023-05-18T03:14:45.640Z,1021.14
2023-05-18T03:15:45.953Z,1021.16
2023-05-18T03:16:46.432Z,1021.15
2023-05-18T03:17:46.510Z,1021.15
2023-05-18T03:18:46.966Z,1021.18
2023-05-18T03:19:47.120Z,1021.16
2023-05-18T03:20:47.526Z,1021.17
2023-05-18T03:21:47.659Z,1021.15
2023-05-18T03:22:47.995Z,1021.15
2023-05-18T03:23:48.443Z,1021.17
2023-05-18T03:24:48.703Z,1021.16
2023-05-18T03:25:48.950Z,1021.14
2023-05-18T03:26:49.180Z,1021.16
2023-05-18T03:27:49.433Z,1021.13
2023-05-18T03:28:49.802Z,1021.17
2023-05-18T03:29:49.950Z,1021.20
2023-05-18T03:30:50.389Z,1021.16
2023-05-18T03:31:50.747Z,1021.26
2023-05-18T03:32:50.944Z,1021.18
2023-05-18T03:33:58.433Z,1021.22
2023-05-18T03:34:51.437Z,1021.23
2023-05-18T03:35:51.726Z,1021.23
2023-05-18T03:36:52.027Z,1021.20
2023-05-18T03:37:52.327Z,1021.22
2023-05-18T03:38:52.666Z,1021.21
2023-05-18T03:39:52.988Z,1021.24
2023-05-18T03:40:53.287Z,1021.26
2023-05-18T03:41:53.587Z,1021.22
2023-05-18T03:42:53.859Z,1021.20
2023-05-18T03:43:54.152Z,1021.22
2023-05-18T03:44:54.437Z,1021.24
2023-05-18T03:45:54.744Z,1021.20
2023-05-18T03:46:55.029Z,1021.31
2023-05-18T03:47:55.390Z,1021.24
2023-05-18T03:48:55.659Z,1021.28
2023-05-18T03:49:55.995Z,1021.29
2023-05-18T03:50:56.276Z,1021.26
2023-05-18T03:51:56.599Z,1021.26
2023-05-18T03:52:56.892Z,1021.29
2023-05-18T03:53:57.215Z,1021.27
2023-05-18T03:54:57.520Z,1021.29
2023-05-18T03:55:57.799Z,1021.30
2023-05-18T03:56:58.100Z,1021.30
2023-05-18T03:57:58.428Z,1021.25
2023-05-18T03:58:58.720Z,1021.27
2023-05-18T03:59:59.057Z,1021.29
2023-05-18T04:00:59.334Z,1021.26
2023-05-18T04:01:59.753Z,1021.26
2023-05-18T04:02:59.918Z,1021.29
2023-05-18T04:04:00.239Z,1021.32
2023-05-18T04:05:00.451Z,1021.25
2023-05-18T04:06:00.775Z,1021.27
2023-05-18T04:07:01.076Z,1021.32
2023-05-18T04:08:01.395Z,1021.29
2023-05-18T04:09:01.699Z,1021.30
2023-05-18T04:10:01.994Z,1021.33
2023-05-18T04:11:02.330Z,1021.28
2023-05-18T04:12:02.571Z,1021.33
2023-05-18T04:13:02.882Z,1021.28
2023-05-18T04:14:03.189Z,1021.26
2023-05-18T04:15:03.510Z,1021.29
2023-05-18T04:16:03.898Z,1021.29
2023-05-18T04:17:04.074Z,1021.32
2023-05-18T04:18:04.451Z,1021.24
2023-05-18T04:19:06.378Z,1021.24
2023-05-18T04:20:04.932Z,1021.26
2023-05-18T04:21:05.218Z,1021.28
2023-05-18T04:22:05.592Z,1021.24
2023-05-18T04:23:05.777Z,1021.29
2023-05-18T04:24:06.072Z,1021.27
2023-05-18T04:25:06.384Z,1021.23
2023-05-18T04:26:06.705Z,1021.27
2023-05-18T04:27:07.036Z,1021.28
2023-05-18T04:28:07.226Z,1021.25
2023-05-18T04:29:07.546Z,1021.24
2023-05-18T04:30:07.880Z,1021.28
2023-05-18T04:31:08.211Z,1021.27
2023-05-18T04:32:08.832Z,1021.25
2023-05-18T04:33:08.935Z,1021.30
2023-05-18T04:34:09.085Z,1021.29
2023-05-18T04:35:09.413Z,1021.30
2023-05-18T04:36:09.720Z,1021.30
2023-05-18T04:37:10.071Z,1021.27
2023-05-18T04:38:10.264Z,1021.30
2023-05-18T04:39:10.578Z,1021.30
2023-05-18T04:40:10.920Z,1021.28
2023-05-18T04:41:11.247Z,1021.28
2023-05-18T04:42:11.641Z,1021.31
2023-05-18T04:43:11.798Z,1021.35
2023-05-18T04:44:12.127Z,1021.34
2023-05-18T04:45:12.458Z,1021.29
2023-05-18T04:46:12.821Z,1021.27
2023-05-18T04:47:13.095Z,1021.33
2023-05-18T04:48:13.468Z,1021.34
2023-05-18T04:49:13.660Z,1021.35
2023-05-18T04:50:13.862Z,1021.34
2023-05-18T04:51:14.173Z,1021.31
2023-05-18T04:52:14.521Z,1021.28
2023-05-18T04:53:14.733Z,1021.34
2023-05-18T04:54:15.036Z,1021.32
2023-05-18T04:55:15.367Z,1021.33
2023-05-18T04:56:15.698Z,1021.37
2023-05-18T04:57:16.040Z,1021.35
2023-05-18T04:58:16.221Z,1021.37
2023-05-18T04:59:16.504Z,1021.35
2023-05-18T05:00:16.868Z,1021.34
2023-05-18T05:01:17.257Z,1021.37
2023-05-18T05:02:17.473Z,1021.32
2023-05-18T05:03:17.801Z,1021.31
2023-05-18T05:04:17.919Z,1021.37
2023-05-18T05:05:18.268Z,1021.35
2023-05-18T05:06:18.504Z,1021.33
2023-05-18T05:07:18.745Z,1021.31
2023-05-18T05:08:18.955Z,1021.31
2023-05-18T05:09:19.302Z,1021.31
2023-05-18T05:10:19.630Z,1021.32
2023-05-18T05:11:20.025Z,1021.30
2023-05-18T05:12:20.205Z,1021.32
2023-05-18T05:13:20.517Z,1021.35
2023-05-18T05:14:20.820Z,1021.26
2023-05-18T05:15:21.155Z,1021.33
2023-05-18T05:16:21.539Z,1021.31
2023-05-18T05:17:21.854Z,1021.30
2023-05-18T05:18:22.089Z,1021.32
2023-05-18T05:19:22.332Z,1021.32
2023-05-18T05:20:22.676Z,1021.32
2023-05-18T05:21:22.886Z,1021.33
2023-05-18T05:22:23.237Z,1021.30
2023-05-18T05:23:23.480Z,1021.32
2023-05-18T05:24:23.695Z,1021.35
2023-05-18T05:25:23.884Z,1021.32
2023-05-18T05:26:24.240Z,1021.40
2023-05-18T05:27:24.564Z,1021.36
2023-05-18T05:28:24.880Z,1021.33
2023-05-18T05:29:25.224Z,1021.35
2023-05-18T05:30:25.427Z,1021.31
2023-05-18T05:31:25.802Z,1021.34
2023-05-18T05:32:26.077Z,1021.35
2023-05-18T05:33:26.231Z,1021.34
2023-05-18T05:34:26.547Z,1021.35
2023-05-18T05:35:26.831Z,1021.39
2023-05-18T05:36:27.152Z,1021.38
2023-05-18T05:37:27.517Z,1021.38
2023-05-18T05:38:27.829Z,1021.40
2023-05-18T05:39:28.196Z,1021.43
2023-05-18T05:40:28.422Z,1021.43
2023-05-18T05:41:30.021Z,1021.39
2023-05-18T05:42:29.085Z,1021.42
2023-05-18T05:43:29.220Z,1021.45
2023-05-18T05:44:29.578Z,1021.48
2023-05-18T05:45:30.077Z,1021.42
2023-05-18T05:46:30.178Z,1021.46
2023-05-18T05:47:30.443Z,1021.42
2023-05-18T05:48:30.653Z,1021.42
2023-05-18T05:49:30.877Z,1021.46
2023-05-18T05:50:31.095Z,1021.42
2023-05-18T05:51:31.438Z,1021.48
2023-05-18T05:52:31.663Z,1021.45
2023-05-18T05:53:31.999Z,1021.44
2023-05-18T05:54:32.350Z,1021.46
2023-05-18T05:55:32.799Z,1021.43
2023-05-18T05:56:32.807Z,1021.46
2023-05-18T05:57:33.157Z,1021.45
2023-05-18T05:58:33.495Z,1021.42
2023-05-18T05:59:33.799Z,1021.51
2023-05-18T06:00:34.017Z,1021.42
2023-05-18T06:01:34.319Z,1021.45
2023-05-18T06:02:34.572Z,1021.43
2023-05-18T06:03:36.181Z,1021.46
2023-05-18T06:04:35.077Z,1021.50
2023-05-18T06:05:35.300Z,1021.49
2023-05-18T06:06:35.545Z,1021.50
2023-05-18T06:07:35.823Z,1021.46
2023-05-18T06:08:36.056Z,1021.48
2023-05-18T06:09:36.285Z,1021.53
2023-05-18T06:10:36.641Z,1021.50
2023-05-18T06:11:36.851Z,1021.51
2023-05-18T06:12:37.190Z,1021.55
2023-05-18T06:13:37.444Z,1021.53
2023-05-18T06:14:37.779Z,1021.54
2023-05-18T06:15:37.993Z,1021.55
2023-05-18T06:16:38.390Z,1021.57
2023-05-18T06:17:38.621Z,1021.57
2023-05-18T06:18:38.870Z,1021.54
2023-05-18T06:19:39.057Z,1021.59
2023-05-18T06:20:39.305Z,1021.56
2023-05-18T06:21:39.648Z,1021.57
2023-05-18T06:22:40.031Z,1021.57
2023-05-18T06:23:41.891Z,1021.59
2023-05-18T06:24:40.556Z,1021.59
2023-05-18T06:25:40.803Z,1021.58
2023-05-18T06:26:41.148Z,1021.55
2023-05-18T06:27:41.352Z,1021.60
2023-05-18T06:28:41.790Z,1021.61
2023-05-18T06:29:41.948Z,1021.67
2023-05-18T06:30:42.312Z,1021.62
2023-05-18T06:31:42.579Z,1021.67
2023-05-18T06:32:42.806Z,1021.67
2023-05-18T06:33:43.054Z,1021.71
2023-05-18T06:34:43.315Z,1021.69
2023-05-18T06:35:43.555Z,1021.70
2023-05-18T06:36:43.739Z,1021.76
2023-05-18T06:37:46.694Z,1021.74
2023-05-18T06:38:44.489Z,1021.70
2023-05-18T06:39:44.681Z,1021.64
2023-05-18T06:40:44.867Z,1021.64
2023-05-18T06:41:45.242Z,1021.69
2023-05-18T06:42:45.475Z,1021.69
2023-05-18T06:43:45.739Z,1021.68
2023-05-18T06:44:46.059Z,1021.71
2023-05-18T06:45:46.314Z,1021.70
2023-05-18T06:46:46.644Z,1021.73
2023-05-18T06:47:46.899Z,1021.66
2023-05-18T06:48:47.195Z,1021.71
2023-05-18T06:49:47.353Z,1021.71
2023-05-18T06:50:47.710Z,1021.68
2023-05-18T06:51:48.071Z,1021.68
2023-05-18T06:52:48.335Z,1021.70
2023-05-18T06:53:48.521Z,1021.73
2023-05-18T06:54:48.926Z,1021.73
2023-05-18T06:55:49.141Z,1021.75
2023-05-18T06:56:49.423Z,1021.73
2023-05-18T06:57:49.636Z,1021.72
2023-05-18T06:58:49.865Z,1021.71
2023-05-18T06:59:50.119Z,1021.74
2023-05-18T07:00:50.537Z,1021.76
2023-05-18T07:01:50.757Z,1021.74
2023-05-18T07:02:50.998Z,1021.75
2023-05-18T07:03:51.165Z,1021.77
2023-05-18T07:04:51.444Z,1021.72
2023-05-18T07:05:51.637Z,1021.72
2023-05-18T07:06:51.958Z,1021.75
2023-05-18T07:07:52.334Z,1021.74
2023-05-18T07:08:52.597Z,1021.77
2023-05-18T07:09:52.782Z,1021.73
2023-05-18T07:10:53.032Z,1021.75
2023-05-18T07:11:53.279Z,1021.71
2023-05-18T07:12:53.519Z,1021.77
2023-05-18T07:13:53.904Z,1021.76
2023-05-18T07:14:54.061Z,1021.78
2023-05-18T07:15:54.346Z,1021.77
2023-05-18T07:16:54.571Z,1021.80
2023-05-18T07:17:54.867Z,1021.76
2023-05-18T07:18:55.190Z,1021.77
2023-05-18T07:19:55.350Z,1021.80
2023-05-18T07:20:55.664Z,1021.77
2023-05-18T07:21:56.017Z,1021.83
2023-05-18T07:22:56.227Z,1021.76
2023-05-18T07:23:56.620Z,1021.77
2023-05-18T07:24:56.809Z,1021.81
2023-05-18T07:25:57.012Z,1021.76
2023-05-18T07:26:58.856Z,1021.75
2023-05-18T07:27:57.683Z,1021.73
2023-05-18T07:28:57.900Z,1021.77
2023-05-18T07:29:58.232Z,1021.75
2023-05-18T07:30:58.571Z,1021.72
2023-05-18T07:31:58.954Z,1021.72
2023-05-18T07:32:59.220Z,1021.70
2023-05-18T07:33:59.358Z,1021.69
2023-05-18T07:34:59.606Z,1021.69
2023-05-18T07:35:59.943Z,1021.68
2023-05-18T07:37:00.185Z,1021.64
2023-05-18T07:38:00.411Z,1021.62
2023-05-18T07:39:00.778Z,1021.65
2023-05-18T07:40:01.019Z,1021.61
2023-05-18T07:41:01.220Z,1021.59
2023-05-18T07:42:01.452Z,1021.58
2023-05-18T07:43:01.804Z,1021.59
2023-05-18T07:44:02.039Z,1021.58
2023-05-18T07:45:02.290Z,1021.59
2023-05-18T07:46:02.552Z,1021.55
2023-05-18T07:47:02.864Z,1021.54
2023-05-18T07:48:03.204Z,1021.58
2023-05-18T07:49:03.425Z,1021.55
2023-05-18T07:50:03.651Z,1021.61
2023-05-18T07:51:03.880Z,1021.55
2023-05-18T07:52:04.115Z,1021.59
2023-05-18T07:53:04.349Z,1021.63
2023-05-18T07:54:04.708Z,1021.59
2023-05-18T07:55:04.993Z,1021.55
2023-05-18T07:56:05.177Z,1021.55
2023-05-18T07:57:05.464Z,1021.54
2023-05-18T07:58:05.714Z,1021.52
2023-05-18T07:59:05.936Z,1021.58
2023-05-18T08:00:06.252Z,1021.52
2023-05-18T08:01:06.438Z,1021.54
2023-05-18T08:02:06.735Z,1021.51
2023-05-18T08:03:07.141Z,1021.53
2023-05-18T08:04:07.409Z,1021.54
2023-05-18T08:05:07.609Z,1021.59
2023-05-18T08:06:07.967Z,1021.59
2023-05-18T08:07:08.150Z,1021.57
2023-05-18T08:08:08.511Z,1021.56
2023-05-18T08:09:08.742Z,1021.53
2023-05-18T08:10:08.983Z,1021.53
2023-05-18T08:11:09.236Z,1021.50
2023-05-18T08:12:09.601Z,1021.48
2023-05-18T08:13:09.874Z,1021.48
2023-05-18T08:14:10.088Z,1021.47
2023-05-18T08:15:10.318Z,1021.49
2023-05-18T08:16:12.122Z,1021.47
2023-05-18T08:17:10.954Z,1021.45
2023-05-18T08:18:11.174Z,1021.45
2023-05-18T08:19:11.421Z,1021.44
2023-05-18T08:20:11.784Z,1021.44
2023-05-18T08:21:11.996Z,1021.42
2023-05-18T08:22:12.222Z,1021.42
2023-05-18T08:23:12.599Z,1021.41
2023-05-18T08:24:12.811Z,1021.42
2023-05-18T08:25:13.016Z,1021.43
2023-05-18T08:26:14.078Z,1021.40
2023-05-18T08:27:13.704Z,1021.39
2023-05-18T08:28:14.038Z,1021.40
2023-05-18T08:29:14.386Z,1021.34
2023-05-18T08:30:14.617Z,1021.36
2023-05-18T08:31:14.983Z,1021.34
2023-05-18T08:32:15.301Z,1021.30
2023-05-18T08:33:15.497Z,1021.27
2023-05-18T08:34:15.772Z,1021.25
2023-05-18T08:35:16.108Z,1021.31
2023-05-18T08:36:16.311Z,1021.24
2023-05-18T08:37:16.658Z,1021.28
2023-05-18T08:38:16.983Z,1021.26
2023-05-18T08:39:17.320Z,1021.22
2023-05-18T08:40:17.543Z,1021.24
2023-05-18T08:41:17.863Z,1021.21
2023-05-18T08:42:18.218Z,1021.18
2023-05-18T08:43:18.399Z,1021.19
2023-05-18T08:44:18.829Z,1021.14
2023-05-18T08:45:19.079Z,1021.17
2023-05-18T08:46:19.305Z,1021.06
2023-05-18T08:47:19.618Z,1021.03
2023-05-18T08:48:19.999Z,1020.99
2023-05-18T08:49:20.156Z,1021.02
2023-05-18T08:50:21.991Z,1020.97
2023-05-18T08:51:20.827Z,1021.00
2023-05-18T08:52:21.093Z,1020.99
2023-05-18T08:53:21.390Z,1020.99
2023-05-18T08:54:21.749Z,1021.01
2023-05-18T08:55:22.043Z,1020.99
2023-05-18T08:56:22.398Z,1020.95
2023-05-18T08:57:22.685Z,1020.98
2023-05-18T08:58:23.063Z,1020.99
2023-05-18T08:59:23.410Z,1021.03
2023-05-18T09:00:24.384Z,1021.01
2023-05-18T09:01:23.941Z,1020.97
2023-05-18T09:02:24.109Z,1020.97
2023-05-18T09:03:24.426Z,1020.93
2023-05-18T09:04:24.821Z,1020.98
2023-05-18T09:05:25.088Z,1020.95
2023-05-18T09:06:25.298Z,1020.96
2023-05-18T09:07:25.627Z,1020.94
2023-05-18T09:08:25.981Z,1020.97
2023-05-18T09:09:26.256Z,1020.97
2023-05-18T09:10:26.582Z,1020.96
2023-05-18T09:11:26.965Z,1020.98
2023-05-18T09:12:27.217Z,1020.95
2023-05-18T09:13:27.564Z,1020.95
2023-05-18T09:14:27.901Z,1020.95
2023-05-18T09:15:28.188Z,1020.93
2023-05-18T09:16:28.606Z,1020.95
2023-05-18T09:17:28.825Z,1020.95
2023-05-18T09:18:29.107Z,1020.98
2023-05-18T09:19:29.521Z,1020.95
2023-05-18T09:20:29.654Z,1020.98
2023-05-18T09:21:29.975Z,1020.92
2023-05-18T09:22:30.284Z,1020.93
2023-05-18T09:23:30.610Z,1020.95
2023-05-18T09:24:30.966Z,1020.91
2023-05-18T09:25:31.548Z,1020.87
2023-05-18T09:26:47.301Z,1020.89
2023-05-18T09:27:31.838Z,1020.86
2023-05-18T09:28:32.151Z,1020.89
2023-05-18T09:29:33.899Z,1020.86
2023-05-18T09:30:32.762Z,1020.90
2023-05-18T09:31:33.104Z,1020.87
2023-05-18T09:32:33.310Z,1020.88
2023-05-18T09:33:33.746Z,1020.86
2023-05-18T09:34:33.957Z,1020.80
2023-05-18T09:35:34.586Z,1020.80
2023-05-18T09:36:34.605Z,1020.78
2023-05-18T09:37:34.910Z,1020.84
2023-05-18T09:38:35.187Z,1020.84
2023-05-18T09:39:35.536Z,1020.80
2023-05-18T09:40:35.854Z,1020.79
2023-05-18T09:41:36.176Z,1020.80
2023-05-18T09:42:36.511Z,1020.76
2023-05-18T09:43:36.846Z,1020.81
2023-05-18T09:44:37.161Z,1020.74
2023-05-18T09:45:37.487Z,1020.77
2023-05-18T09:46:38.005Z,1020.80
2023-05-18T09:47:38.318Z,1020.74
2023-05-18T09:48:38.385Z,1020.75
2023-05-18T09:49:38.676Z,1020.80
2023-05-18T09:50:38.977Z,1020.81
2023-05-18T09:51:39.286Z,1020.79
2023-05-18T09:52:39.604Z,1020.75
2023-05-18T09:53:39.909Z,1020.77
2023-05-18T09:54:40.217Z,1020.77
2023-05-18T09:55:40.569Z,1020.73
2023-05-18T09:56:40.881Z,1020.77
2023-05-18T09:57:41.234Z,1020.73
2023-05-18T09:58:41.532Z,1020.73
2023-05-18T09:59:41.886Z,1020.74
2023-05-18T10:00:42.155Z,1020.71
2023-05-18T10:01:42.348Z,1020.67
2023-05-18T10:02:42.688Z,1020.67
2023-05-18T10:03:43.017Z,1020.72
2023-05-18T10:04:43.571Z,1020.72
2023-05-18T10:05:43.685Z,1020.69
2023-05-18T10:06:44.013Z,1020.68
2023-05-18T10:07:44.337Z,1020.67
2023-05-18T10:08:44.531Z,1020.61
2023-05-18T10:09:44.910Z,1020.65
2023-05-18T10:10:45.156Z,1020.64
2023-05-18T10:11:45.446Z,1020.65
2023-05-18T10:12:45.770Z,1020.57
2023-05-18T10:13:46.130Z,1020.55
2023-05-18T10:14:46.419Z,1020.53
2023-05-18T10:15:46.725Z,1020.54
2023-05-18T10:16:47.060Z,1020.49
2023-05-18T10:17:47.392Z,1020.48
2023-05-18T10:18:47.588Z,1020.48
2023-05-18T10:19:47.887Z,1020.48
2023-05-18T10:20:48.212Z,1020.55
2023-05-18T10:21:48.530Z,1020.51
2023-05-18T10:22:48.877Z,1020.45
2023-05-18T10:23:49.087Z,1020.43
2023-05-18T10:24:49.405Z,1020.46
2023-05-18T10:25:49.734Z,1020.43
2023-05-18T10:26:51.958Z,1020.46
2023-05-18T10:27:50.341Z,1020.41
2023-05-18T10:28:50.635Z,1020.46
2023-05-18T10:29:50.953Z,1020.46
2023-05-18T10:30:51.349Z,1020.38
2023-05-18T10:31:51.583Z,1020.42
2023-05-18T10:32:51.962Z,1020.38
2023-05-18T10:33:52.218Z,1020.37
2023-05-18T10:34:52.553Z,1020.38
2023-05-18T10:35:52.922Z,1020.38
2023-05-18T10:36:53.216Z,1020.36
2023-05-18T10:37:53.501Z,1020.34
2023-05-18T10:38:53.821Z,1020.37
2023-05-18T10:39:54.147Z,1020.43
2023-05-18T10:40:54.418Z,1020.42
2023-05-18T10:41:54.717Z,1020.36
2023-05-18T10:42:55.051Z,1020.35
2023-05-18T10:43:55.338Z,1020.34
2023-05-18T10:44:55.651Z,1020.35
2023-05-18T10:45:56.042Z,1020.35
2023-05-18T10:46:56.336Z,1020.30
2023-05-18T10:47:56.623Z,1020.31
2023-05-18T10:48:56.919Z,1020.29
2023-05-18T10:49:57.163Z,1020.25
2023-05-18T10:50:57.426Z,1020.32
2023-05-18T10:51:57.766Z,1020.27
2023-05-18T10:52:57.987Z,1020.26
2023-05-18T10:53:58.311Z,1020.23
2023-05-18T10:54:58.652Z,1020.22
2023-05-18T10:55:58.877Z,1020.24
2023-05-18T10:56:59.189Z,1020.20
2023-05-18T10:57:59.527Z,1020.20
2023-05-18T10:58:59.794Z,1020.18
2023-05-18T11:00:00.155Z,1020.20
2023-05-18T11:01:00.426Z,1020.22
2023-05-18T11:02:00.752Z,1020.18
2023-05-18T11:03:01.113Z,1020.21
2023-05-18T11:04:01.420Z,1020.18
2023-05-18T11:05:01.795Z,1020.16
2023-05-18T11:06:01.989Z,1020.21
2023-05-18T11:07:02.288Z,1020.17
2023-05-18T11:08:02.604Z,1020.15
2023-05-18T11:09:02.944Z,1020.15
2023-05-18T11:10:03.286Z,1020.12
2023-05-18T11:11:03.631Z,1020.07
2023-05-18T11:12:03.877Z,1020.08
2023-05-18T11:13:04.207Z,1020.11
2023-05-18T11:14:04.545Z,1020.13
2023-05-18T11:15:04.878Z,1020.12
2023-05-18T11:16:05.434Z,1020.16
2023-05-18T11:17:05.437Z,1020.07
2023-05-18T11:18:05.818Z,1020.07
2023-05-18T11:19:06.126Z,1020.08
2023-05-18T11:20:06.449Z,1020.04
2023-05-18T11:21:06.740Z,1020.01
2023-05-18T11:22:07.054Z,1020.04
2023-05-18T11:23:07.347Z,1019.98
2023-05-18T11:24:07.683Z,1019.95
2023-05-18T11:25:08.028Z,1019.95
2023-05-18T11:26:08.264Z,1019.96
2023-05-18T11:27:08.469Z,1019.92
2023-05-18T11:28:08.753Z,1019.92
2023-05-18T11:29:09.098Z,1019.99
2023-05-18T11:31:10.601Z,1019.97
2023-05-18T11:32:09.863Z,1019.98
2023-05-18T11:33:10.329Z,1019.92
2023-05-18T11:34:10.483Z,1019.97
2023-05-18T11:35:10.827Z,1019.95
2023-05-18T11:36:11.167Z,1019.97
2023-05-18T11:37:11.516Z,1019.92
2023-05-18T11:38:11.703Z,1019.91
2023-05-18T11:39:12.080Z,1019.90
2023-05-18T11:40:12.283Z,1019.89
2023-05-18T11:41:12.514Z,1019.87
2023-05-18T11:42:12.855Z,1019.87
2023-05-18T11:43:13.165Z,1019.87
2023-05-18T11:44:13.501Z,1019.87
2023-05-18T11:45:13.764Z,1019.92
2023-05-18T11:46:14.093Z,1019.89
2023-05-18T11:47:14.448Z,1019.95
2023-05-18T11:48:14.837Z,1019.87
2023-05-18T11:49:15.135Z,1019.86
2023-05-18T11:50:15.345Z,1019.89
2023-05-18T11:51:15.725Z,1019.85
2023-05-18T11:52:16.011Z,1019.82
2023-05-18T11:53:16.341Z,1019.83
2023-05-18T11:54:16.660Z,1019.86
2023-05-18T11:55:16.977Z,1019.82
2023-05-18T11:56:17.333Z,1019.82
2023-05-18T11:57:18.495Z,1019.77
2023-05-18T11:58:17.921Z,1019.75
2023-05-18T11:59:18.271Z,1019.71
2023-05-18T12:00:18.609Z,1019.73
2023-05-18T12:01:18.950Z,1019.69
2023-05-18T12:02:19.272Z,1019.66
2023-05-18T12:03:19.601Z,1019.69
2023-05-18T12:04:20.031Z,1019.71
2023-05-18T12:05:20.201Z,1019.68
2023-05-18T12:06:20.507Z,1019.65
2023-05-18T12:07:20.892Z,1019.67
2023-05-18T12:08:21.133Z,1019.61
2023-05-18T12:09:21.480Z,1019.60
2023-05-18T12:10:21.806Z,1019.55
2023-05-18T12:11:22.125Z,1019.57
2023-05-18T12:12:22.431Z,1019.58
2023-05-18T12:13:22.750Z,1019.56
2023-05-18T12:14:23.089Z,1019.58